Flight NumberQSM1010 Date23.05.2022
Departure AirportOIII Arrival AirportOIBK
Departure Time22.02Arrival Time23.37
Pilot In CommandMohammad Gholamzadeh Block Time1.60 Hours
Pilot Rating100 % AircraftEP-QAA [ MD-83 ]


Distance568.00 Nm. Passengers168
Fuel Used5,113 Kg. Cargo117 Kg
Expense Details Income Details
Fuel Cost3,078 v$Ticket Sales35,784 v$
Pilot Salary5,934 v$ Cargo income189.00 v$
Crew Salary864 v$ Bonus7,065 v$
Gross Profit36,457 v$ ( 911,425 v$ )

Client Versionv2.4.1 Max Simrate1
Flight Critique Pilot CommentsOIBK 222200Z 00000KT 5000 BR NSC 25/23 Q0996